Time;durP1;ratioP1;P1;durP2;ratioP2;P2;SDS_P1;SDS_P2;PMS_P1;PMS_P2;Temp;Humidity;BMP_temperature;BMP_pressure;BME280_temperature;BME280_humidity;BME280_pressure;Samples;Min_cycle;Max_cycle;Signal;HPM_P1;HPM_P2
2023/08/31 00:02:19;;;;;;;2.63;0.93;;;;;;;21.11;47.07;100627.88;5015275;28;20083;-61
2023/08/31 00:04:44;;;;;;;2.03;1.08;;;;;;;21.09;47.82;100631.84;5015235;28;20038;-61
2023/08/31 00:07:10;;;;;;;2.55;0.95;;;;;;;21.09;47.27;100632.69;5015094;28;20034;-62
2023/08/31 00:09:36;;;;;;;2.72;1.20;;;;;;;21.05;47.13;100625.91;5014853;28;20056;-61
2023/08/31 00:12:02;;;;;;;2.53;0.93;;;;;;;21.04;47.27;100631.59;5015012;28;20029;-61
2023/08/31 00:14:28;;;;;;;0.95;0.70;;;;;;;20.99;47.77;100620.47;4998776;28;20038;-62
2023/08/31 00:16:53;;;;;;;2.65;0.90;;;;;;;20.97;47.60;100627.97;5016303;28;20041;-62
2023/08/31 00:19:19;;;;;;;0.65;0.60;;;;;;;20.96;47.37;100631.75;5015207;28;20489;-61
2023/08/31 00:21:44;;;;;;;1.30;0.60;;;;;;;20.92;47.70;100631.31;5016225;28;20050;-61
2023/08/31 00:24:10;;;;;;;0.88;0.30;;;;;;;20.84;47.60;100624.16;5015015;28;20580;-61
2023/08/31 00:26:40;;;;;;;1.10;0.60;;;;;;;20.85;48.18;100635.88;5015871;28;20065;-61
2023/08/31 00:29:06;;;;;;;2.45;0.50;;;;;;;20.83;47.43;100637.94;5015061;28;20041;-61
2023/08/31 00:31:32;;;;;;;1.95;0.70;;;;;;;20.81;47.36;100634.59;5015260;28;20497;-62
2023/08/31 00:33:57;;;;;;;2.05;0.60;;;;;;;20.77;47.33;100645.03;4998325;28;20040;-60
2023/08/31 00:36:23;;;;;;;1.33;0.65;;;;;;;20.73;47.90;100637.47;5015863;28;20041;-61
2023/08/31 00:38:49;;;;;;;3.60;1.05;;;;;;;20.72;47.65;100641.22;5015951;28;20569;-61
2023/08/31 00:41:14;;;;;;;2.15;0.52;;;;;;;20.68;47.86;100629.06;5013749;28;20087;-61
2023/08/31 00:43:40;;;;;;;2.55;0.55;;;;;;;20.67;48.03;100635.53;5014626;28;20030;-61
2023/08/31 00:46:06;;;;;;;2.30;0.73;;;;;;;20.65;47.67;100624.88;5014251;28;20050;-61
2023/08/31 00:48:31;;;;;;;1.35;0.75;;;;;;;20.66;47.58;100633.88;5014636;28;20068;-61
2023/08/31 00:50:57;;;;;;;0.50;0.40;;;;;;;20.57;47.78;100627.75;4997241;28;20061;-61
2023/08/31 00:53:23;;;;;;;1.52;0.60;;;;;;;20.57;47.76;100626.91;5014412;28;20038;-61
2023/08/31 00:55:48;;;;;;;3.53;0.68;;;;;;;20.56;47.83;100631.50;4997891;28;20030;-61
2023/08/31 00:58:14;;;;;;;0.52;0.40;;;;;;;20.53;47.75;100631.91;5015541;28;20045;-60
2023/08/31 01:01:12;;;;;;;0.60;0.40;;;;;;;20.52;48.08;100637.56;5015647;28;20124;-61
2023/08/31 01:03:53;;;;;;;0.77;0.52;;;;;;;20.47;47.86;100640.84;5014065;28;20034;-61
2023/08/31 01:07:03;;;;;;;0.98;0.68;;;;;;;20.46;47.22;100635.63;5015260;28;20038;-60
2023/08/31 01:09:36;;;;;;;0.68;0.50;;;;;;;20.45;48.03;100639.38;5014399;28;20062;-61
2023/08/31 01:12:05;;;;;;;1.08;0.50;;;;;;;20.44;47.39;100632.22;5013992;28;20363;-62
2023/08/31 01:14:45;;;;;;;1.77;0.50;;;;;;;20.42;47.88;100629.72;5013844;28;20034;-61
2023/08/31 01:17:13;;;;;;;0.68;0.43;;;;;;;20.39;47.37;100632.00;5008168;28;20041;-62
2023/08/31 01:19:47;;;;;;;2.03;0.55;;;;;;;20.38;47.38;100643.94;5015107;28;20026;-63
2023/08/31 01:22:57;;;;;;;1.08;0.50;;;;;;;20.33;47.40;100642.63;5015248;28;20060;-61
2023/08/31 01:25:23;;;;;;;0.55;0.38;;;;;;;20.31;48.13;100633.84;5014864;28;20034;-62
2023/08/31 01:27:48;;;;;;;1.55;0.65;;;;;;;20.29;47.55;100640.50;5013568;28;20026;-61
2023/08/31 01:30:13;;;;;;;0.75;0.43;;;;;;;20.25;47.45;100631.91;5013530;28;20121;-62
2023/08/31 01:32:45;;;;;;;1.05;0.70;;;;;;;20.26;47.86;100630.03;5014898;28;20083;-62
2023/08/31 01:35:15;;;;;;;1.20;0.93;;;;;;;20.25;47.77;100626.44;5014749;28;20048;-62
2023/08/31 01:37:56;;;;;;;0.50;0.40;;;;;;;20.24;47.69;100629.31;4997258;28;20044;-62
2023/08/31 01:40:36;;;;;;;1.27;0.40;;;;;;;20.19;47.65;100634.50;5013528;28;20061;-63
2023/08/31 01:43:03;;;;;;;1.65;0.43;;;;;;;20.21;47.65;100633.28;5013286;28;20049;-63
2023/08/31 01:45:30;;;;;;;1.30;0.30;;;;;;;20.17;47.73;100632.00;5013270;28;20508;-62
2023/08/31 01:47:56;;;;;;;3.70;0.50;;;;;;;20.15;48.00;100633.25;4996663;28;20064;-61
2023/08/31 01:50:21;;;;;;;1.20;0.40;;;;;;;20.15;47.74;100628.66;4996967;28;20022;-61
2023/08/31 01:52:47;;;;;;;0.82;0.50;;;;;;;20.14;48.16;100629.69;4996816;28;20375;-60
2023/08/31 01:55:15;;;;;;;3.22;0.90;;;;;;;20.12;48.07;100637.19;5014564;28;20053;-61
2023/08/31 01:57:41;;;;;;;0.57;0.38;;;;;;;20.07;47.70;100639.63;5013167;28;20430;-61
2023/08/31 02:00:07;;;;;;;0.63;0.40;;;;;;;20.03;47.70;100643.81;5012967;28;20060;-61
2023/08/31 02:02:33;;;;;;;2.83;0.57;;;;;;;19.99;47.65;100634.34;5014236;28;20516;-61
2023/08/31 02:05:01;;;;;;;0.95;0.70;;;;;;;19.95;48.10;100638.50;5014178;28;20037;-61
2023/08/31 02:07:26;;;;;;;1.05;0.85;;;;;;;19.93;47.68;100634.28;5014252;28;20026;-61
2023/08/31 02:09:52;;;;;;;1.17;0.40;;;;;;;19.89;47.88;100639.28;5012619;28;20168;-61
2023/08/31 02:12:17;;;;;;;3.38;0.68;;;;;;;19.86;47.82;100645.09;4996330;28;20041;-61
2023/08/31 02:14:43;;;;;;;1.33;0.90;;;;;;;19.84;47.86;100647.16;5012318;28;20412;-62
2023/08/31 02:17:08;;;;;;;1.88;0.57;;;;;;;19.79;48.33;100644.19;5011872;28;20037;-61
2023/08/31 02:19:34;;;;;;;2.10;0.73;;;;;;;19.78;48.31;100650.66;5013996;28;20030;-61
2023/08/31 02:21:59;;;;;;;0.82;0.50;;;;;;;19.77;48.18;100646.25;4996364;28;20026;-61
2023/08/31 02:24:24;;;;;;;1.52;0.65;;;;;;;19.75;48.20;100642.88;5012971;28;20402;-62
2023/08/31 02:26:52;;;;;;;1.42;0.73;;;;;;;19.75;48.46;100648.31;5013684;28;20038;-61
2023/08/31 02:29:17;;;;;;;1.20;0.70;;;;;;;19.71;47.95;100641.56;5013855;28;20481;-61
2023/08/31 02:31:45;;;;;;;0.93;0.60;;;;;;;19.72;48.49;100648.69;5013935;28;20040;-61
2023/08/31 02:34:10;;;;;;;1.80;0.57;;;;;;;19.73;48.50;100650.41;4996378;28;20153;-61
2023/08/31 02:36:36;;;;;;;2.63;0.80;;;;;;;19.74;48.89;100646.63;5013604;28;20113;-61
2023/08/31 02:39:03;;;;;;;2.15;0.68;;;;;;;19.71;48.07;100647.84;5013560;28;20040;-61
2023/08/31 02:41:28;;;;;;;0.93;0.70;;;;;;;19.70;48.44;100648.91;5013668;28;20040;-61
2023/08/31 02:43:54;;;;;;;1.45;0.80;;;;;;;19.70;48.04;100648.91;5012361;28;20034;-61
2023/08/31 02:46:19;;;;;;;0.50;0.50;;;;;;;19.69;48.36;100638.22;5012312;28;20076;-61
2023/08/31 02:48:45;;;;;;;1.20;0.80;;;;;;;19.71;48.41;100655.16;5015352;28;20025;-61
2023/08/31 02:51:11;;;;;;;1.00;0.80;;;;;;;19.70;48.18;100650.78;5015601;28;20030;-60
2023/08/31 02:53:36;;;;;;;0.75;0.75;;;;;;;19.71;48.71;100647.00;4999555;28;20061;-61
2023/08/31 02:56:02;;;;;;;1.48;0.60;;;;;;;19.72;48.26;100648.69;5015944;28;20060;-60
2023/08/31 02:58:28;;;;;;;1.88;1.10;;;;;;;19.72;48.22;100659.56;5015108;28;20120;-61
2023/08/31 03:00:53;;;;;;;0.95;0.70;;;;;;;19.72;48.57;100656.84;5013491;28;20447;-60
2023/08/31 03:03:19;;;;;;;3.60;0.80;;;;;;;19.73;48.49;100655.84;5014007;28;20033;-60
2023/08/31 03:05:45;;;;;;;2.00;0.75;;;;;;;19.72;48.79;100655.00;5011911;28;20559;-60
2023/08/31 03:08:10;;;;;;;1.83;1.17;;;;;;;19.73;48.16;100666.72;5011737;28;20038;-61
2023/08/31 03:10:36;;;;;;;0.80;0.80;;;;;;;19.73;48.21;100664.00;5013193;28;20117;-60
2023/08/31 03:13:02;;;;;;;1.77;1.00;;;;;;;19.70;48.55;100657.06;5011269;28;20403;-60
2023/08/31 03:15:27;;;;;;;3.33;1.40;;;;;;;19.69;48.22;100660.81;4995544;28;20030;-60
2023/08/31 03:17:53;;;;;;;2.92;1.08;;;;;;;19.69;48.48;100660.81;4995607;28;20121;-60
2023/08/31 03:20:18;;;;;;;3.10;1.42;;;;;;;19.69;48.59;100654.53;5011507;28;20041;-61
2023/08/31 03:22:44;;;;;;;4.10;1.25;;;;;;;19.68;49.02;100659.13;5013338;28;20628;-61
2023/08/31 03:25:09;;;;;;;1.90;1.25;;;;;;;19.70;48.80;100656.22;5012879;28;20038;-61
2023/08/31 03:27:35;;;;;;;2.17;1.08;;;;;;;19.70;49.29;100667.09;5011842;28;20032;-60
2023/08/31 03:30:01;;;;;;;1.60;1.25;;;;;;;19.70;48.74;100664.38;5013034;28;20033;-60
2023/08/31 03:32:27;;;;;;;2.53;1.83;;;;;;;19.70;49.33;100664.38;5011804;28;20409;-61
2023/08/31 03:34:52;;;;;;;2.63;1.58;;;;;;;19.67;48.93;100662.88;5011571;28;20049;-61
2023/08/31 03:37:17;;;;;;;1.27;1.15;;;;;;;19.68;48.78;100661.00;5011627;28;20460;-60
2023/08/31 03:39:43;;;;;;;2.72;1.15;;;;;;;19.67;48.56;100662.03;5013026;28;20046;-61
2023/08/31 03:42:09;;;;;;;4.63;1.52;;;;;;;19.67;48.73;100667.47;5011558;28;20026;-61
2023/08/31 03:44:35;;;;;;;3.72;1.92;;;;;;;19.67;48.74;100664.75;5011575;28;20030;-60
2023/08/31 03:47:00;;;;;;;1.50;1.27;;;;;;;19.68;49.09;100661.81;5011618;28;20441;-61
2023/08/31 03:49:25;;;;;;;1.92;1.20;;;;;;;19.68;49.57;100663.72;5012636;28;20041;-61
2023/08/31 03:51:53;;;;;;;5.78;1.30;;;;;;;19.67;48.90;100667.47;5011829;28;20473;-60
2023/08/31 03:54:18;;;;;;;2.95;1.40;;;;;;;19.67;49.09;100664.75;5012949;28;20041;-61
2023/08/31 03:56:44;;;;;;;5.72;1.35;;;;;;;19.67;48.98;100670.19;5011671;28;20033;-61
2023/08/31 03:59:09;;;;;;;5.82;1.23;;;;;;;19.66;48.94;100671.22;5011442;28;20034;-61
2023/08/31 04:01:34;;;;;;;2.63;1.65;;;;;;;19.64;48.52;100668.69;5012753;28;20033;-61
2023/08/31 04:04:00;;;;;;;3.53;2.20;;;;;;;19.64;48.98;100678.72;5012530;28;20045;-60
2023/08/31 04:06:25;;;;;;;2.38;1.52;;;;;;;19.60;48.84;100671.97;5011336;28;20038;-60
2023/08/31 04:08:51;;;;;;;1.65;1.33;;;;;;;19.60;49.45;100677.41;5012514;28;20085;-61
2023/08/31 04:11:16;;;;;;;2.63;1.40;;;;;;;19.57;48.55;100680.53;5011207;28;20084;-61
2023/08/31 04:13:41;;;;;;;6.70;1.40;;;;;;;19.58;48.76;100690.34;5012160;28;20111;-61
2023/08/31 04:16:07;;;;;;;3.78;1.55;;;;;;;19.55;48.88;100685.28;5012578;28;20136;-61
2023/08/31 04:18:32;;;;;;;3.33;1.30;;;;;;;19.54;49.32;100689.06;5011481;28;20030;-61
2023/08/31 04:21:00;;;;;;;2.80;1.17;;;;;;;19.54;49.36;100686.34;5012568;28;20504;-61
2023/08/31 04:23:26;;;;;;;5.13;2.17;;;;;;;19.53;49.03;100687.38;5012442;28;20034;-60
2023/08/31 04:25:53;;;;;;;2.42;1.45;;;;;;;19.53;49.45;100688.22;5013912;28;20423;-60
2023/08/31 04:28:18;;;;;;;2.45;1.33;;;;;;;19.53;48.83;100685.50;5016285;28;20026;-60
2023/08/31 04:30:44;;;;;;;2.45;1.67;;;;;;;19.53;49.28;100687.38;5014956;28;20490;-60
2023/08/31 04:33:10;;;;;;;2.97;1.58;;;;;;;19.52;49.38;100691.09;5014873;28;20091;-60
2023/08/31 04:35:35;;;;;;;3.85;2.00;;;;;;;19.53;49.37;100692.81;5014592;28;20498;-60
2023/08/31 04:38:00;;;;;;;2.85;1.77;;;;;;;19.51;49.23;100693.00;5014760;28;20054;-61
2023/08/31 04:40:27;;;;;;;4.35;1.60;;;;;;;19.49;49.42;100692.34;5014634;28;20125;-61
2023/08/31 04:42:53;;;;;;;4.47;1.88;;;;;;;19.49;49.34;100696.91;5014714;28;20049;-60
2023/08/31 04:45:18;;;;;;;7.22;2.10;;;;;;;19.48;49.08;100697.97;5014698;28;20042;-60
2023/08/31 04:47:44;;;;;;;4.65;1.92;;;;;;;19.47;49.06;100699.00;5014523;28;20494;-60
2023/08/31 04:50:09;;;;;;;5.45;2.05;;;;;;;19.44;49.78;100699.38;5015694;28;20113;-60
2023/08/31 04:52:35;;;;;;;7.75;2.30;;;;;;;19.46;49.46;100702.72;5015623;28;20033;-61
2023/08/31 04:55:01;;;;;;;2.88;1.65;;;;;;;19.44;49.63;100704.81;4997722;28;20383;-60
2023/08/31 04:57:26;;;;;;;4.80;1.70;;;;;;;19.45;49.45;100706.50;5014600;28;20057;-61
2023/08/31 04:59:52;;;;;;;3.97;1.65;;;;;;;19.45;49.45;100717.38;5015606;28;20550;-61
2023/08/31 05:02:18;;;;;;;3.88;1.98;;;;;;;19.46;49.54;100713.59;5015513;28;20034;-61
2023/08/31 05:04:44;;;;;;;5.65;1.92;;;;;;;19.46;49.99;100711.72;5015362;28;20053;-60
2023/08/31 05:07:09;;;;;;;5.38;1.92;;;;;;;19.51;49.66;100716.63;4997768;28;20072;-61
2023/08/31 05:09:35;;;;;;;5.40;1.80;;;;;;;19.50;49.67;100720.34;5015063;28;20042;-61
2023/08/31 05:12:02;;;;;;;4.45;2.13;;;;;;;19.54;49.88;100727.94;5015112;28;20038;-60
2023/08/31 05:14:29;;;;;;;6.30;2.03;;;;;;;19.58;48.73;100728.41;5014013;28;20033;-61
2023/08/31 05:16:56;;;;;;;5.50;2.08;;;;;;;19.63;49.68;100736.81;5014034;28;20038;-61
2023/08/31 05:19:22;;;;;;;6.70;1.48;;;;;;;19.69;49.91;100733.34;5016724;28;20046;-61
2023/08/31 05:21:47;;;;;;;5.78;2.03;;;;;;;19.74;49.64;100733.59;5014108;28;20026;-61
2023/08/31 05:24:12;;;;;;;5.13;1.98;;;;;;;19.79;49.38;100736.63;4997502;28;20512;-61
2023/08/31 05:26:39;;;;;;;3.00;1.67;;;;;;;19.86;49.50;100742.13;5013800;28;20042;-61
2023/08/31 05:29:05;;;;;;;4.85;1.20;;;;;;;19.92;49.34;100747.63;4997227;28;20395;-60
2023/08/31 05:31:30;;;;;;;13.07;1.70;;;;;;;20.02;49.72;100745.44;5015104;28;20041;-60
2023/08/31 05:33:55;;;;;;;4.82;1.92;;;;;;;20.14;49.08;100743.91;5015095;28;20041;-60
2023/08/31 05:36:21;;;;;;;5.30;1.50;;;;;;;20.22;49.93;100738.34;5014552;28;20034;-59
2023/08/31 05:38:46;;;;;;;5.65;1.45;;;;;;;20.32;49.43;100749.75;5013686;28;20033;-60
2023/08/31 05:41:12;;;;;;;4.82;2.20;;;;;;;20.42;48.92;100748.59;4997082;28;20037;-60
2023/08/31 05:43:40;;;;;;;6.30;1.80;;;;;;;20.51;49.14;100751.00;5014708;28;20026;-60
2023/08/31 05:46:05;;;;;;;5.43;1.70;;;;;;;20.64;49.31;100753.00;4997269;28;20030;-61
2023/08/31 05:48:31;;;;;;;4.72;1.70;;;;;;;20.75;48.46;100749.75;5013170;28;20045;-61
2023/08/31 05:50:57;;;;;;;3.08;2.13;;;;;;;20.88;49.30;100755.31;5014647;28;20065;-61
2023/08/31 05:53:22;;;;;;;3.00;1.83;;;;;;;20.97;49.07;100748.66;4996896;28;20465;-61
2023/08/31 05:55:48;;;;;;;4.45;1.48;;;;;;;21.13;48.47;100758.44;5014505;28;20037;-61
2023/08/31 05:58:13;;;;;;;4.07;1.92;;;;;;;21.30;48.47;100748.94;5013153;28;20042;-61
2023/08/31 06:00:38;;;;;;;2.83;1.63;;;;;;;21.45;48.75;100763.25;5013071;28;20057;-61
2023/08/31 06:03:05;;;;;;;2.92;1.42;;;;;;;21.60;48.15;100761.25;4996834;28;20069;-61
2023/08/31 06:05:31;;;;;;;2.97;1.52;;;;;;;21.76;48.38;100768.22;5013023;28;20438;-61
2023/08/31 06:07:57;;;;;;;5.28;1.50;;;;;;;21.89;47.54;100766.41;5012996;28;20088;-61
2023/08/31 06:10:23;;;;;;;4.95;1.85;;;;;;;22.08;48.32;100773.00;5014055;28;20437;-61
2023/08/31 06:12:49;;;;;;;2.70;1.40;;;;;;;22.22;47.94;100771.97;5012990;28;20088;-61
2023/08/31 06:15:15;;;;;;;5.22;1.73;;;;;;;22.35;47.33;100772.03;5012863;28;20104;-63
2023/08/31 06:17:41;;;;;;;2.63;1.25;;;;;;;22.47;46.93;100775.00;5013921;28;20124;-61
2023/08/31 06:20:08;;;;;;;6.88;2.22;;;;;;;22.59;47.25;100773.31;5012807;28;20037;-61
2023/08/31 06:22:33;;;;;;;3.60;1.80;;;;;;;22.73;47.03;100779.66;5013727;28;20498;-63
2023/08/31 06:24:59;;;;;;;4.97;1.80;;;;;;;22.84;47.06;100781.75;5012424;28;20038;-61
2023/08/31 06:27:25;;;;;;;4.95;1.77;;;;;;;22.93;47.53;100775.03;5012681;28;20108;-62
2023/08/31 06:29:50;;;;;;;2.38;1.40;;;;;;;23.03;47.50;100783.66;5012640;28;20549;-61
2023/08/31 06:32:17;;;;;;;2.58;1.40;;;;;;;23.18;46.78;100773.31;5013828;28;20038;-61
2023/08/31 06:34:42;;;;;;;2.38;1.33;;;;;;;23.35;46.20;100780.03;5012636;28;20036;-61
2023/08/31 06:37:07;;;;;;;4.50;2.13;;;;;;;23.55;46.82;100780.00;5012496;28;20409;-61
2023/08/31 06:39:33;;;;;;;5.10;1.45;;;;;;;23.61;46.32;100780.00;5012300;28;20474;-61
2023/08/31 06:41:58;;;;;;;9.00;2.55;;;;;;;23.61;46.63;100780.00;5013633;28;20037;-61
2023/08/31 06:44:24;;;;;;;1.48;1.10;;;;;;;23.65;45.99;100778.50;5013942;28;20030;-62
2023/08/31 06:46:49;;;;;;;3.95;1.80;;;;;;;23.88;45.91;100779.88;5011941;28;20490;-62
2023/08/31 06:49:14;;;;;;;3.67;1.45;;;;;;;24.03;46.28;100780.47;5012245;28;20073;-61
2023/08/31 06:51:40;;;;;;;3.65;1.65;;;;;;;24.16;45.77;100783.16;5013288;28;20034;-62
2023/08/31 06:54:05;;;;;;;2.00;1.20;;;;;;;24.32;45.04;100793.59;5013458;28;20038;-62
2023/08/31 06:56:33;;;;;;;4.15;1.17;;;;;;;24.46;44.89;100800.66;5012079;28;20079;-63
2023/08/31 06:58:58;;;;;;;3.53;1.75;;;;;;;24.64;45.35;100799.94;5012230;28;20413;-62
2023/08/31 07:01:24;;;;;;;3.47;2.17;;;;;;;24.67;44.90;100788.53;4995704;28;20041;-61
2023/08/31 07:03:49;;;;;;;2.40;1.27;;;;;;;24.78;45.23;100805.09;5011890;28;20117;-62
2023/08/31 07:06:15;;;;;;;5.80;1.40;;;;;;;24.88;44.65;100799.97;5013151;28;20042;-62
2023/08/31 07:08:42;;;;;;;6.53;1.40;;;;;;;25.00;44.42;100796.50;5013059;28;20080;-61
2023/08/31 07:11:07;;;;;;;2.10;1.15;;;;;;;25.08;44.38;100798.97;5013015;28;20527;-61
2023/08/31 07:13:32;;;;;;;2.88;1.23;;;;;;;25.14;44.55;100803.56;5013031;28;20038;-61
2023/08/31 07:15:58;;;;;;;3.35;1.23;;;;;;;25.37;44.43;100799.13;5011917;28;20401;-61
2023/08/31 07:18:23;;;;;;;3.42;1.20;;;;;;;25.56;44.18;100794.50;5013034;28;20065;-62
2023/08/31 07:20:48;;;;;;;5.40;1.40;;;;;;;25.71;43.91;100800.44;5012928;28;20038;-62
2023/08/31 07:23:14;;;;;;;4.07;1.58;;;;;;;25.89;43.75;100811.44;5012911;28;20050;-63
2023/08/31 07:25:39;;;;;;;6.32;1.67;;;;;;;26.11;43.45;100811.78;5012879;28;20045;-62
2023/08/31 07:28:05;;;;;;;8.07;1.85;;;;;;;26.25;43.37;100807.81;5012959;28;20033;-62
2023/08/31 07:30:30;;;;;;;2.63;1.15;;;;;;;26.45;42.92;100813.03;4995301;28;20117;-62
2023/08/31 07:32:56;;;;;;;3.47;1.23;;;;;;;26.60;43.38;100816.22;5011667;28;20450;-62
2023/08/31 07:35:21;;;;;;;3.33;1.88;;;;;;;26.76;42.08;100804.53;5011522;28;20030;-62
2023/08/31 07:37:47;;;;;;;3.53;1.17;;;;;;;26.94;42.71;100807.22;5012815;28;20519;-63
2023/08/31 07:40:12;;;;;;;6.30;1.58;;;;;;;27.10;42.52;100803.81;5011447;28;20030;-62
2023/08/31 07:42:37;;;;;;;7.43;1.48;;;;;;;27.27;41.80;100801.19;5012769;28;20030;-62
2023/08/31 07:45:05;;;;;;;5.35;1.92;;;;;;;27.42;41.72;100803.44;5012793;28;20030;-61
2023/08/31 07:47:31;;;;;;;6.45;1.25;;;;;;;27.53;41.81;100810.88;4995303;28;20032;-62
2023/08/31 07:49:56;;;;;;;2.58;0.75;;;;;;;27.66;40.74;100813.38;5011362;28;20046;-62
2023/08/31 07:52:22;;;;;;;5.30;1.30;;;;;;;27.82;41.31;100812.63;5012664;28;20378;-61
2023/08/31 07:54:47;;;;;;;4.32;1.10;;;;;;;27.98;41.52;100814.63;5012624;28;20053;-62
2023/08/31 07:57:13;;;;;;;3.85;1.90;;;;;;;28.13;41.32;100806.72;5012613;28;20037;-62
2023/08/31 07:59:40;;;;;;;5.40;1.20;;;;;;;28.26;40.88;100813.84;5014045;28;20119;-63
2023/08/31 08:02:06;;;;;;;4.15;1.23;;;;;;;28.44;39.97;100812.81;5015473;28;20075;-63
2023/08/31 08:04:31;;;;;;;3.53;1.20;;;;;;;28.63;40.12;100806.03;5015351;28;20026;-62
2023/08/31 08:06:57;;;;;;;4.22;0.88;;;;;;;28.81;40.72;100808.59;5015123;28;20045;-62
2023/08/31 08:09:22;;;;;;;6.32;1.48;;;;;;;28.98;40.40;100808.59;5014921;28;20406;-63
2023/08/31 08:11:47;;;;;;;6.13;1.08;;;;;;;29.16;39.78;100822.97;5014966;28;20080;-62
2023/08/31 08:14:15;;;;;;;6.07;1.20;;;;;;;29.26;39.81;100820.38;5014966;28;20034;-62
2023/08/31 08:16:41;;;;;;;2.83;1.02;;;;;;;29.36;39.28;100820.56;5016065;28;20034;-62
2023/08/31 08:19:07;;;;;;;3.45;0.82;;;;;;;29.52;39.28;100832.66;5014987;28;20040;-62
2023/08/31 08:21:32;;;;;;;2.60;1.27;;;;;;;29.64;38.90;100824.28;5016117;28;20025;-61
2023/08/31 08:23:58;;;;;;;6.38;1.40;;;;;;;29.80;38.85;100824.25;5015956;28;20516;-62
2023/08/31 08:26:23;;;;;;;4.10;1.40;;;;;;;29.93;38.86;100831.31;4998317;28;20058;-61
2023/08/31 08:28:48;;;;;;;3.42;1.02;;;;;;;29.98;38.27;100828.66;5015982;28;20088;-63
2023/08/31 08:31:14;;;;;;;3.15;1.00;;;;;;;30.02;38.13;100838.06;5014709;28;20038;-62
2023/08/31 08:33:40;;;;;;;2.63;1.15;;;;;;;30.02;38.08;100835.31;5015925;28;20057;-62
2023/08/31 08:36:05;;;;;;;4.28;1.35;;;;;;;30.04;37.76;100835.88;5014840;28;20033;-62
2023/08/31 08:38:31;;;;;;;4.63;1.35;;;;;;;30.06;37.62;100839.25;5014193;28;20499;-65
2023/08/31 08:40:56;;;;;;;4.63;1.25;;;;;;;30.16;37.79;100850.41;5014716;28;20022;-63
2023/08/31 08:43:24;;;;;;;4.10;1.13;;;;;;;30.28;37.50;100848.38;5014559;28;20053;-62
2023/08/31 08:45:50;;;;;;;6.85;1.58;;;;;;;30.40;37.40;100837.22;5014469;28;20469;-62
2023/08/31 08:48:17;;;;;;;5.20;1.45;;;;;;;30.53;37.35;100834.88;5014794;28;20101;-62
2023/08/31 08:50:43;;;;;;;2.72;1.08;;;;;;;30.66;37.55;100832.75;5016168;28;20056;-62
2023/08/31 08:53:09;;;;;;;3.25;1.50;;;;;;;30.82;37.23;100842.91;5014440;28;20022;-62
2023/08/31 08:55:34;;;;;;;3.22;0.93;;;;;;;30.95;36.79;100832.25;5014405;28;20084;-62
2023/08/31 08:58:00;;;;;;;4.85;1.30;;;;;;;31.10;36.93;100842.63;5015418;28;20022;-62
2023/08/31 09:00:27;;;;;;;2.60;1.23;;;;;;;31.12;36.93;100837.66;5015739;28;20389;-61
2023/08/31 09:02:52;;;;;;;2.63;0.85;;;;;;;31.24;36.19;100834.72;4998007;28;20018;-60
2023/08/31 09:05:18;;;;;;;2.85;0.98;;;;;;;31.32;36.59;100837.00;5014147;28;20052;-62
2023/08/31 09:08:01;;;;;;;5.63;1.95;;;;;;;31.51;36.20;100841.88;5014051;28;20113;-61
2023/08/31 09:10:37;;;;;;;3.10;1.95;;;;;;;31.65;35.59;100848.63;5014410;28;20111;-62
2023/08/31 09:13:05;;;;;;;3.22;1.45;;;;;;;31.64;36.45;100846.94;5015042;28;20037;-61
2023/08/31 09:15:47;;;;;;;2.13;1.40;;;;;;;31.19;36.71;100852.09;5014226;28;20046;-62
2023/08/31 09:18:31;;;;;;;1.42;1.27;;;;;;;31.48;35.79;100845.19;5013873;28;20030;-62
2023/08/31 09:20:57;;;;;;;5.80;1.67;;;;;;;31.92;35.43;100851.25;5015501;28;20053;-62
2023/08/31 09:23:23;;;;;;;4.60;1.42;;;;;;;31.82;35.73;100850.38;5016954;28;20516;-61
2023/08/31 09:25:50;;;;;;;10.30;1.95;;;;;;;31.46;36.04;100852.06;5018886;28;20034;-61
2023/08/31 09:28:16;;;;;;;6.82;1.90;;;;;;;31.22;36.49;100862.66;5019676;28;20042;-62
2023/08/31 09:30:42;;;;;;;2.78;1.10;;;;;;;31.05;36.49;100854.47;5017735;28;20523;-61
2023/08/31 09:33:09;;;;;;;6.15;1.98;;;;;;;30.73;37.00;100859.13;5015512;28;20034;-62
2023/08/31 09:35:39;;;;;;;6.68;2.00;;;;;;;30.64;36.65;100868.16;5013674;28;20034;-62
2023/08/31 09:38:07;;;;;;;2.97;1.10;;;;;;;30.43;36.87;100867.91;5014852;28;20037;-62
2023/08/31 09:40:33;;;;;;;6.20;1.75;;;;;;;30.27;37.18;100860.50;5015008;28;20030;-62
2023/08/31 09:42:58;;;;;;;7.63;1.48;;;;;;;30.19;36.72;100860.97;5013558;28;20037;-62
2023/08/31 09:45:34;;;;;;;3.58;1.35;;;;;;;30.16;36.62;100866.16;5013207;28;20030;-62
2023/08/31 09:48:01;;;;;;;2.55;1.30;;;;;;;30.13;36.75;100850.94;5013269;28;20042;-62
2023/08/31 09:50:30;;;;;;;5.22;2.15;;;;;;;31.55;34.88;100856.84;5013518;28;20524;-62
2023/08/31 09:52:57;;;;;;;3.40;1.33;;;;;;;32.77;33.58;100858.28;5013402;28;20129;-62
2023/08/31 09:55:25;;;;;;;5.82;1.20;;;;;;;32.87;32.99;100854.66;5013509;28;20030;-62
2023/08/31 09:57:52;;;;;;;5.32;1.65;;;;;;;33.06;32.80;100850.25;5014393;28;20034;-62
2023/08/31 10:00:18;;;;;;;4.20;1.50;;;;;;;33.47;32.93;100860.28;5013234;28;20409;-62
2023/08/31 10:02:44;;;;;;;3.42;1.38;;;;;;;33.62;33.71;100863.03;5013181;28;20038;-61
2023/08/31 10:05:09;;;;;;;6.70;1.38;;;;;;;33.72;33.95;100853.84;5012750;28;20041;-62
2023/08/31 10:07:35;;;;;;;2.05;1.38;;;;;;;33.11;34.75;100864.16;5013023;28;20041;-62
2023/08/31 10:10:00;;;;;;;2.88;1.15;;;;;;;32.79;34.98;100870.75;5012919;28;20383;-62
2023/08/31 10:12:27;;;;;;;1.63;1.08;;;;;;;32.75;34.14;100863.25;5013018;28;20570;-62
2023/08/31 10:14:54;;;;;;;4.60;1.40;;;;;;;32.78;33.76;100857.16;5013041;28;20116;-62
2023/08/31 10:17:20;;;;;;;5.70;1.20;;;;;;;32.42;34.18;100864.53;5012691;28;20030;-63
2023/08/31 10:19:49;;;;;;;2.35;1.17;;;;;;;32.14;34.93;100856.66;4996566;28;20112;-63
2023/08/31 10:22:14;;;;;;;3.75;1.77;;;;;;;32.71;33.58;100857.44;5011854;28;20037;-63
2023/08/31 10:25:03;;;;;;;4.45;1.15;;;;;;;33.64;31.70;100860.81;5013907;28;20034;-63
2023/08/31 10:27:28;;;;;;;5.80;1.33;;;;;;;33.87;32.57;100849.06;5013668;28;20125;-63
2023/08/31 10:29:54;;;;;;;4.97;1.50;;;;;;;33.69;33.10;100855.25;5012862;28;20115;-62
2023/08/31 10:32:21;;;;;;;1.50;1.30;;;;;;;33.64;32.38;100855.25;4997057;28;20026;-63
2023/08/31 10:35:06;;;;;;;4.07;1.38;;;;;;;32.99;32.76;100858.00;5013120;28;20018;-62
2023/08/31 10:37:32;;;;;;;5.72;1.70;;;;;;;32.47;33.49;100852.63;5012591;28;20520;-62
2023/08/31 10:40:11;;;;;;;5.68;1.40;;;;;;;32.62;33.11;100852.69;5013894;28;20030;-62
2023/08/31 10:42:47;;;;;;;4.53;1.40;;;;;;;31.97;32.92;100853.19;5013562;28;20580;-62
2023/08/31 10:45:14;;;;;;;6.22;1.30;;;;;;;32.18;33.40;100852.25;5012387;28;20502;-62
2023/08/31 10:47:40;;;;;;;2.50;1.45;;;;;;;31.54;33.52;100852.44;5012998;28;20591;-62
2023/08/31 10:50:17;;;;;;;3.60;1.35;;;;;;;31.12;33.80;100855.13;5014005;28;20030;-62
2023/08/31 10:52:44;;;;;;;5.13;1.45;;;;;;;30.82;34.11;100857.53;5012587;28;20034;-62
2023/08/31 10:55:10;;;;;;;2.83;0.95;;;;;;;30.60;34.15;100855.97;5012536;28;20029;-62
2023/08/31 10:57:35;;;;;;;3.72;1.10;;;;;;;30.91;33.46;100852.38;5013520;28;20065;-62
2023/08/31 11:00:02;;;;;;;3.05;1.25;;;;;;;31.13;33.79;100856.75;5013854;28;20045;-62
2023/08/31 11:02:37;;;;;;;2.72;1.10;;;;;;;30.76;34.19;100855.00;5012740;28;20041;-62
2023/08/31 11:05:09;;;;;;;5.28;1.23;;;;;;;30.44;34.37;100855.78;5014160;28;20030;-62
2023/08/31 11:07:35;;;;;;;4.18;0.95;;;;;;;30.14;34.83;100852.63;5013649;28;20044;-62
2023/08/31 11:10:15;;;;;;;4.60;0.90;;;;;;;29.85;34.88;100849.19;5011720;28;20046;-62
2023/08/31 11:12:42;;;;;;;5.07;1.23;;;;;;;29.64;35.30;100849.13;5013516;28;20079;-62
2023/08/31 11:15:08;;;;;;;5.72;1.08;;;;;;;29.52;35.14;100853.91;5012616;28;20037;-62
2023/08/31 11:17:34;;;;;;;4.53;1.30;;;;;;;30.80;33.51;100858.91;5012523;28;20032;-62
2023/08/31 11:20:00;;;;;;;4.90;1.15;;;;;;;31.01;34.00;100858.91;5012292;28;20034;-62
2023/08/31 11:22:26;;;;;;;5.18;1.20;;;;;;;31.60;33.56;100867.94;5012436;28;20030;-62
2023/08/31 11:24:51;;;;;;;6.00;1.20;;;;;;;31.49;33.87;100849.59;5013824;28;20041;-62